Time;durP1;ratioP1;P1;durP2;ratioP2;P2;SDS_P1;SDS_P2;PMS_P1;PMS_P2;Temp;Humidity;BMP_temperature;BMP_pressure;BME280_temperature;BME280_humidity;BME280_pressure;Samples;Min_cycle;Max_cycle;Signal;HPM_P1;HPM_P2
2021/06/10 00:02:22;;;;;;;28.57;26.77;;;17.30;88.90;;;;;;5081608;28;20457;-78
2021/06/10 00:04:49;;;;;;;28.40;26.70;;;17.40;88.90;;;;;;5079580;28;21200;-77
2021/06/10 00:07:18;;;;;;;29.27;27.27;;;17.40;88.70;;;;;;5080844;28;20560;-78
2021/06/10 00:09:45;;;;;;;29.87;27.97;;;17.30;88.70;;;;;;5082718;28;20453;-77
2021/06/10 00:12:13;;;;;;;28.90;27.10;;;17.30;88.90;;;;;;5083386;28;21040;-77
2021/06/10 00:14:41;;;;;;;29.80;27.60;;;17.30;89.00;;;;;;5081811;28;20513;-77
2021/06/10 00:17:07;;;;;;;28.20;26.40;;;17.30;89.00;;;;;;5080942;28;21216;-77
2021/06/10 00:19:34;;;;;;;27.53;25.83;;;17.20;89.00;;;;;;5072780;28;20590;-77
2021/06/10 00:22:00;;;;;;;27.50;25.80;;;17.20;89.10;;;;;;5077622;28;21158;-78
2021/06/10 00:24:28;;;;;;;27.60;25.90;;;17.20;89.10;;;;;;5072187;28;20473;-77
2021/06/10 00:26:54;;;;;;;27.63;25.93;;;17.20;89.10;;;;;;5082831;28;20882;-77
2021/06/10 00:29:21;;;;;;;27.57;25.87;;;17.10;89.10;;;;;;5066121;28;21013;-77
2021/06/10 00:31:47;;;;;;;26.37;24.70;;;17.00;89.30;;;;;;5074315;28;20452;-77
2021/06/10 00:34:14;;;;;;;28.17;26.40;;;17.00;89.30;;;;;;5078263;28;20481;-77
2021/06/10 00:36:40;;;;;;;28.13;26.40;;;17.00;89.40;;;;;;5081205;28;20462;-78
2021/06/10 00:39:07;;;;;;;28.37;26.53;;;17.00;89.50;;;;;;5077613;28;21294;-77
2021/06/10 00:41:37;;;;;;;27.07;25.37;;;17.00;89.60;;;;;;5083485;28;20453;-77
2021/06/10 00:44:06;;;;;;;27.07;25.37;;;17.00;89.60;;;;;;5074052;28;21155;-77
2021/06/10 00:46:33;;;;;;;27.90;26.20;;;16.90;89.70;;;;;;5079946;28;20488;-77
2021/06/10 00:48:59;;;;;;;27.43;25.80;;;16.90;89.70;;;;;;5072179;28;20466;-77
2021/06/10 00:51:27;;;;;;;27.27;25.27;;;16.90;89.50;;;;;;5083516;28;20526;-77
2021/06/10 00:53:54;;;;;;;28.40;26.10;;;16.80;89.90;;;;;;5081117;28;20516;-77
2021/06/10 00:56:20;;;;;;;27.50;25.80;;;16.80;90.10;;;;;;5081843;28;20540;-77
2021/06/10 00:58:48;;;;;;;27.00;25.30;;;16.80;90.20;;;;;;5071546;28;21091;-77
2021/06/10 01:01:15;;;;;;;28.00;26.00;;;16.80;90.20;;;;;;5063150;28;20497;-77
2021/06/10 01:03:41;;;;;;;26.77;25.07;;;16.80;90.20;;;;;;5074926;28;20488;-78
2021/06/10 01:06:18;;;;;;;27.43;25.73;;;16.80;90.00;;;;;;5081502;28;20853;-77
2021/06/10 01:08:55;;;;;;;27.03;25.33;;;16.70;90.10;;;;;;5077455;28;20488;-77
2021/06/10 01:11:32;;;;;;;27.20;25.50;;;16.60;90.30;;;;;;5086682;28;21071;-77
2021/06/10 01:14:11;;;;;;;27.87;25.70;;;16.50;90.60;;;;;;5072048;28;20477;-77
2021/06/10 01:16:40;;;;;;;27.37;25.67;;;16.50;90.90;;;;;;5084472;28;20958;-77
2021/06/10 01:19:11;;;;;;;26.80;25.17;;;16.60;90.70;;;;;;5073508;28;20515;-77
2021/06/10 01:21:41;;;;;;;26.97;25.37;;;16.50;90.70;;;;;;5085715;28;21252;-77
2021/06/10 01:24:18;;;;;;;27.23;25.53;;;16.50;90.80;;;;;;5071202;28;20466;-77
2021/06/10 01:26:52;;;;;;;26.73;25.07;;;16.50;90.80;;;;;;5074002;28;20456;-77
2021/06/10 01:29:23;;;;;;;30.87;28.80;;;16.60;90.70;;;;;;5070103;28;20457;-77
2021/06/10 01:31:50;;;;;;;29.00;26.90;;;16.50;90.80;;;;;;5075426;28;20454;-78
2021/06/10 01:34:17;;;;;;;26.33;24.73;;;16.60;90.80;;;;;;5077428;28;20896;-77
2021/06/10 01:36:47;;;;;;;27.97;26.27;;;16.50;90.80;;;;;;5083578;28;20459;-76
2021/06/10 01:39:19;;;;;;;27.30;25.40;;;16.50;90.80;;;;;;5077871;28;20461;-76
2021/06/10 01:41:46;;;;;;;28.07;26.33;;;16.60;90.50;;;;;;5086363;28;21173;-76
2021/06/10 01:44:13;;;;;;;28.10;26.10;;;16.60;90.50;;;;;;5082448;28;20520;-76
2021/06/10 01:46:41;;;;;;;27.23;25.53;;;16.50;90.60;;;;;;5084771;28;20490;-76
2021/06/10 01:49:11;;;;;;;27.00;25.30;;;16.50;90.80;;;;;;5070663;28;20462;-76
2021/06/10 01:51:38;;;;;;;27.00;25.20;;;16.50;90.50;;;;;;5077450;28;20549;-77
2021/06/10 01:54:07;;;;;;;27.50;25.60;;;16.50;90.60;;;;;;5071425;28;20570;-77
2021/06/10 01:56:35;;;;;;;27.50;25.70;;;16.50;90.60;;;;;;5074854;28;20453;-76
2021/06/10 01:59:03;;;;;;;27.30;25.50;;;16.50;90.70;;;;;;5077522;28;20467;-76
2021/06/10 02:01:31;;;;;;;27.13;25.43;;;16.40;90.90;;;;;;5085734;28;20478;-76
2021/06/10 02:04:00;;;;;;;27.73;25.93;;;16.40;91.20;;;;;;5079475;28;20599;-76
2021/06/10 02:06:27;;;;;;;28.90;26.13;;;16.30;91.40;;;;;;5085835;28;20457;-76
2021/06/10 02:08:55;;;;;;;27.37;25.57;;;16.40;91.40;;;;;;5080045;28;20482;-77
2021/06/10 02:11:23;;;;;;;28.00;26.00;;;16.40;91.30;;;;;;5067603;28;20466;-76
2021/06/10 02:13:50;;;;;;;27.93;26.23;;;16.40;91.00;;;;;;5073791;28;20481;-76
2021/06/10 02:16:17;;;;;;;28.03;26.30;;;16.50;90.70;;;;;;5084753;28;20461;-76
2021/06/10 02:18:47;;;;;;;27.20;25.50;;;16.40;90.90;;;;;;5074139;28;21102;-77
2021/06/10 02:21:16;;;;;;;27.43;25.53;;;16.30;91.10;;;;;;5081045;28;20483;-76
2021/06/10 02:23:44;;;;;;;27.60;25.80;;;16.30;91.50;;;;;;5074084;28;20481;-76
2021/06/10 02:26:11;;;;;;;28.53;26.63;;;16.30;91.50;;;;;;5082251;28;20502;-77
2021/06/10 02:28:38;;;;;;;27.80;26.00;;;16.40;91.30;;;;;;5074688;28;20515;-77
2021/06/10 02:31:07;;;;;;;26.70;25.00;;;16.30;91.40;;;;;;5075274;28;20963;-76
2021/06/10 02:33:34;;;;;;;27.20;25.40;;;16.40;91.00;;;;;;5080133;28;20537;-77
2021/06/10 02:36:00;;;;;;;27.87;25.97;;;16.40;90.90;;;;;;5085421;28;20461;-76
2021/06/10 02:38:32;;;;;;;27.60;25.80;;;16.30;91.10;;;;;;5079863;28;20888;-76
2021/06/10 02:41:00;;;;;;;27.67;25.73;;;16.20;91.30;;;;;;5074092;28;20970;-76
2021/06/10 02:43:30;;;;;;;28.70;26.70;;;16.20;91.40;;;;;;5084534;28;20508;-76
2021/06/10 02:45:58;;;;;;;25.90;24.30;;;16.10;91.60;;;;;;5084575;28;20835;-76
2021/06/10 02:48:28;;;;;;;27.70;25.80;;;16.20;91.50;;;;;;5079185;28;20461;-77
2021/06/10 02:50:55;;;;;;;28.03;25.80;;;16.10;91.40;;;;;;5084161;28;20472;-77
2021/06/10 02:53:24;;;;;;;27.30;25.60;;;16.10;91.50;;;;;;5076696;28;20482;-76
2021/06/10 02:55:54;;;;;;;26.30;24.70;;;16.10;91.50;;;;;;5082953;28;20453;-76
2021/06/10 02:58:22;;;;;;;26.60;24.90;;;16.10;91.50;;;;;;5080943;28;20457;-76
2021/06/10 03:00:49;;;;;;;25.73;23.97;;;16.20;91.10;;;;;;5085404;28;20473;-76
2021/06/10 03:03:17;;;;;;;27.57;25.87;;;16.20;90.80;;;;;;5082912;28;20477;-77
2021/06/10 03:05:45;;;;;;;27.30;25.60;;;16.10;90.90;;;;;;5075185;28;20468;-76
2021/06/10 03:08:14;;;;;;;27.63;25.40;;;16.10;91.10;;;;;;5077065;28;20466;-77
2021/06/10 03:10:41;;;;;;;27.93;26.23;;;16.10;91.30;;;;;;5070953;28;21259;-76
2021/06/10 03:13:10;;;;;;;28.07;26.33;;;16.00;91.30;;;;;;5078532;28;20563;-76
2021/06/10 03:15:38;;;;;;;32.67;30.67;;;16.00;91.30;;;;;;5083191;28;20456;-76
2021/06/10 03:18:06;;;;;;;28.23;26.33;;;16.00;91.20;;;;;;5078760;28;20472;-76
2021/06/10 03:20:33;;;;;;;28.00;26.30;;;16.00;91.20;;;;;;5066886;28;20487;-76
2021/06/10 03:23:01;;;;;;;27.73;25.77;;;16.00;91.10;;;;;;5079203;28;20481;-76
2021/06/10 03:25:28;;;;;;;30.00;27.63;;;16.00;91.20;;;;;;5082207;28;20461;-76
2021/06/10 03:27:55;;;;;;;28.40;26.40;;;16.00;91.10;;;;;;5080012;28;20460;-76
2021/06/10 03:30:23;;;;;;;28.90;27.10;;;15.90;91.50;;;;;;5065098;28;20943;-76
2021/06/10 03:32:52;;;;;;;28.60;26.60;;;16.00;91.40;;;;;;5079956;28;20506;-76
2021/06/10 03:35:21;;;;;;;27.73;25.97;;;16.00;91.40;;;;;;5081715;28;20465;-76
2021/06/10 03:37:48;;;;;;;30.87;28.67;;;16.00;91.60;;;;;;5079306;28;20596;-76
2021/06/10 03:40:19;;;;;;;29.00;27.00;;;16.00;91.50;;;;;;5083726;28;20660;-78
2021/06/10 03:42:45;;;;;;;28.50;26.70;;;16.10;90.90;;;;;;5081369;28;21378;-76
2021/06/10 03:45:14;;;;;;;27.47;25.77;;;16.10;90.70;;;;;;5084077;28;20461;-76
2021/06/10 03:47:43;;;;;;;27.80;25.97;;;16.10;90.90;;;;;;5080579;28;21237;-77
2021/06/10 03:50:10;;;;;;;29.20;27.30;;;16.20;90.90;;;;;;5077618;28;20454;-78
2021/06/10 03:52:37;;;;;;;27.50;25.80;;;16.20;90.50;;;;;;5067001;28;20491;-76
2021/06/10 03:55:06;;;;;;;27.50;25.60;;;16.30;90.10;;;;;;5077658;28;20457;-77
2021/06/10 03:57:33;;;;;;;29.27;27.20;;;16.40;90.20;;;;;;5080682;28;20457;-77
2021/06/10 03:59:59;;;;;;;26.97;25.37;;;16.60;89.50;;;;;;5076732;28;20477;-76
2021/06/10 04:02:26;;;;;;;28.67;26.37;;;16.80;88.80;;;;;;5083398;28;20468;-76
2021/06/10 04:04:55;;;;;;;33.80;31.90;;;16.90;88.10;;;;;;5083187;28;20450;-76
2021/06/10 04:07:22;;;;;;;29.27;27.53;;;17.00;87.80;;;;;;5063066;28;20467;-76
2021/06/10 04:09:48;;;;;;;28.80;27.00;;;17.00;87.60;;;;;;5079701;28;20453;-76
2021/06/10 04:12:15;;;;;;;30.40;28.50;;;17.00;87.40;;;;;;5082932;28;20453;-77
2021/06/10 04:14:41;;;;;;;31.63;29.80;;;17.10;87.20;;;;;;5080853;28;20480;-76
2021/06/10 04:17:08;;;;;;;31.43;29.43;;;17.10;87.20;;;;;;5083243;28;20465;-76
2021/06/10 04:19:34;;;;;;;31.50;29.50;;;17.20;86.90;;;;;;5082458;28;20474;-76
2021/06/10 04:22:02;;;;;;;31.03;29.03;;;17.20;86.60;;;;;;5083760;28;20470;-76
2021/06/10 04:24:29;;;;;;;34.63;32.30;;;17.30;86.20;;;;;;5072127;28;20480;-76
2021/06/10 04:26:55;;;;;;;34.40;32.30;;;17.30;86.20;;;;;;5083598;28;20463;-76
2021/06/10 04:29:21;;;;;;;32.63;30.63;;;17.50;86.00;;;;;;5080522;28;20515;-77
2021/06/10 04:31:48;;;;;;;31.17;29.27;;;17.60;85.20;;;;;;5074641;28;20467;-77
2021/06/10 04:34:14;;;;;;;30.63;28.53;;;17.70;85.20;;;;;;5077955;28;20479;-76
2021/06/10 04:36:41;;;;;;;30.97;29.13;;;17.70;84.90;;;;;;5082092;28;20471;-77
2021/06/10 04:39:09;;;;;;;31.13;29.23;;;17.80;84.90;;;;;;5079401;28;20827;-77
2021/06/10 04:41:36;;;;;;;30.73;28.73;;;18.00;84.10;;;;;;5083481;28;20655;-78
2021/06/10 04:44:02;;;;;;;32.60;30.70;;;18.10;83.90;;;;;;5081963;28;21297;-76
2021/06/10 04:46:29;;;;;;;30.70;28.90;;;18.20;83.80;;;;;;5082045;28;20839;-76
2021/06/10 04:48:56;;;;;;;33.50;31.20;;;18.20;83.40;;;;;;5071991;28;20468;-76
2021/06/10 04:51:24;;;;;;;30.83;28.93;;;18.30;83.20;;;;;;5081607;28;20476;-76
2021/06/10 04:53:52;;;;;;;32.13;30.13;;;18.40;82.90;;;;;;5074935;28;20480;-76
2021/06/10 04:56:21;;;;;;;30.93;28.97;;;18.40;82.70;;;;;;5079788;28;20456;-76
2021/06/10 04:58:47;;;;;;;34.20;32.00;;;18.50;82.40;;;;;;5076429;28;20467;-76
2021/06/10 05:01:14;;;;;;;32.37;30.37;;;18.70;81.90;;;;;;5083091;28;20484;-76
2021/06/10 05:03:40;;;;;;;32.40;30.10;;;18.60;81.90;;;;;;5083822;28;20510;-77
2021/06/10 05:06:07;;;;;;;32.20;30.10;;;18.60;82.10;;;;;;5086729;28;20572;-77
2021/06/10 05:08:33;;;;;;;33.47;31.27;;;18.70;81.80;;;;;;5076772;28;20462;-76
2021/06/10 05:11:00;;;;;;;32.97;30.87;;;18.70;81.80;;;;;;5081923;28;20486;-76
2021/06/10 05:13:28;;;;;;;33.10;31.10;;;18.90;81.70;;;;;;5085918;28;20516;-76
2021/06/10 05:15:55;;;;;;;33.20;31.00;;;19.00;81.10;;;;;;5087958;28;20449;-76
2021/06/10 05:18:22;;;;;;;34.40;32.20;;;19.20;80.60;;;;;;5085959;28;20463;-76
2021/06/10 05:20:49;;;;;;;33.27;30.90;;;19.20;80.80;;;;;;5086608;28;20565;-76
2021/06/10 05:23:15;;;;;;;40.87;36.90;;;19.20;80.50;;;;;;5074297;28;20489;-76
2021/06/10 05:25:42;;;;;;;46.73;38.37;;;19.30;80.80;;;;;;5081753;28;20535;-76
2021/06/10 05:28:09;;;;;;;33.43;31.13;;;19.40;80.70;;;;;;5085519;28;20459;-76
2021/06/10 05:30:37;;;;;;;34.83;32.17;;;19.50;80.20;;;;;;5086330;28;20449;-76
2021/06/10 05:33:06;;;;;;;32.57;30.53;;;19.60;79.80;;;;;;5083867;28;20475;-77
2021/06/10 05:35:32;;;;;;;34.57;32.23;;;19.70;79.90;;;;;;5085795;28;20450;-77
2021/06/10 05:37:59;;;;;;;33.60;31.60;;;19.80;79.50;;;;;;5084020;28;20465;-76
2021/06/10 05:40:25;;;;;;;33.43;31.30;;;19.90;79.60;;;;;;5084952;28;20483;-77
2021/06/10 05:42:53;;;;;;;34.90;32.80;;;20.00;79.50;;;;;;5083788;28;20552;-78
2021/06/10 05:45:20;;;;;;;33.40;31.25;;;20.20;78.90;;;;;;5084619;28;20464;-77
2021/06/10 05:47:47;;;;;;;35.90;33.80;;;20.30;78.50;;;;;;5082720;28;20196;-77
2021/06/10 05:50:14;;;;;;;37.63;35.23;;;20.50;78.00;;;;;;5086537;28;20445;-79
2021/06/10 05:52:42;;;;;;;33.47;31.13;;;20.50;78.10;;;;;;5083672;28;20489;-77
2021/06/10 05:55:10;;;;;;;36.40;34.20;;;20.60;77.60;;;;;;5085616;28;21040;-78
2021/06/10 05:57:37;;;;;;;34.57;32.20;;;20.70;77.90;;;;;;5083004;28;20460;-78
2021/06/10 06:00:06;;;;;;;35.50;33.27;;;20.80;80.50;;;;;;5073610;28;20535;-77
2021/06/10 06:02:32;;;;;;;37.10;34.80;;;20.90;78.70;;;;;;5084720;28;20484;-78
2021/06/10 06:05:00;;;;;;;35.70;33.50;;;21.10;76.60;;;;;;5085845;28;20453;-78
2021/06/10 06:07:27;;;;;;;35.10;32.70;;;21.10;76.60;;;;;;5086685;28;21044;-79
2021/06/10 06:09:54;;;;;;;36.97;34.77;;;21.10;76.80;;;;;;5085870;28;20464;-77
2021/06/10 06:12:22;;;;;;;36.40;34.10;;;21.20;76.80;;;;;;5085004;28;20510;-78
2021/06/10 06:14:48;;;;;;;34.47;32.37;;;21.30;76.00;;;;;;5084378;28;20453;-78
2021/06/10 06:17:15;;;;;;;38.60;35.73;;;21.50;75.50;;;;;;5084046;28;21357;-76
2021/06/10 06:19:42;;;;;;;40.47;38.27;;;21.50;75.80;;;;;;5085559;28;20461;-78
2021/06/10 06:22:10;;;;;;;36.70;34.40;;;21.60;75.60;;;;;;5085554;28;20488;-76
2021/06/10 06:24:37;;;;;;;35.17;32.97;;;21.70;75.70;;;;;;5082188;28;20543;-77
2021/06/10 06:27:04;;;;;;;35.90;33.50;;;21.90;74.90;;;;;;5084395;28;20464;-76
2021/06/10 06:29:32;;;;;;;38.67;36.17;;;22.10;74.40;;;;;;5067100;28;20516;-76
2021/06/10 06:31:58;;;;;;;36.67;34.37;;;22.20;74.00;;;;;;5075583;28;20446;-76
2021/06/10 06:34:26;;;;;;;38.60;36.10;;;22.30;73.40;;;;;;5076162;28;20477;-77
2021/06/10 06:36:52;;;;;;;38.60;36.20;;;22.40;73.30;;;;;;5084877;28;20449;-77
2021/06/10 06:39:20;;;;;;;38.53;35.93;;;22.50;73.00;;;;;;5079041;28;20550;-79
2021/06/10 06:41:47;;;;;;;38.00;35.70;;;22.50;72.60;;;;;;5075341;28;20478;-80
2021/06/10 06:44:13;;;;;;;35.37;33.30;;;22.70;71.70;;;;;;5079993;28;20510;-79
2021/06/10 06:46:40;;;;;;;39.53;36.87;;;22.80;71.30;;;;;;5079818;28;20457;-79
2021/06/10 06:49:06;;;;;;;39.00;36.60;;;22.80;71.20;;;;;;5076512;28;20536;-79
2021/06/10 06:51:33;;;;;;;38.07;35.60;;;22.80;73.40;;;;;;5080779;28;20455;-78
2021/06/10 06:54:00;;;;;;;37.00;34.80;;;22.70;71.60;;;;;;5078457;28;20477;-78
2021/06/10 06:56:28;;;;;;;36.03;33.83;;;22.90;70.50;;;;;;5082504;28;20553;-77
2021/06/10 06:58:55;;;;;;;37.93;35.17;;;22.90;70.00;;;;;;5080248;28;20564;-76
2021/06/10 07:01:22;;;;;;;36.23;33.90;;;23.00;70.20;;;;;;5083493;28;20480;-77
2021/06/10 07:03:49;;;;;;;39.33;36.90;;;23.20;69.50;;;;;;5081021;28;20477;-76
2021/06/10 07:06:16;;;;;;;36.53;34.23;;;23.30;69.10;;;;;;5082443;28;20452;-76
2021/06/10 07:08:42;;;;;;;38.80;36.30;;;23.30;69.40;;;;;;5078387;28;20469;-76
2021/06/10 07:11:09;;;;;;;41.47;38.73;;;23.40;69.00;;;;;;5085976;28;20476;-73
2021/06/10 07:13:37;;;;;;;39.43;36.90;;;23.40;68.60;;;;;;5077985;28;20481;-75
2021/06/10 07:16:04;;;;;;;94.07;45.73;;;23.40;69.00;;;;;;5078585;28;20504;-78
2021/06/10 07:18:31;;;;;;;41.47;38.03;;;23.70;68.60;;;;;;5080861;28;20459;-77
2021/06/10 07:20:57;;;;;;;39.27;36.77;;;23.80;68.50;;;;;;5089739;28;21028;-85
2021/06/10 07:23:24;;;;;;;40.50;37.60;;;23.80;68.00;;;;;;5092610;28;20519;-78
2021/06/10 07:25:51;;;;;;;41.03;38.40;;;23.80;67.70;;;;;;5078921;28;21161;-76
2021/06/10 07:28:17;;;;;;;41.93;39.13;;;23.80;67.60;;;;;;5071227;28;20472;-80
2021/06/10 07:30:45;;;;;;;42.63;39.90;;;23.90;67.20;;;;;;5078965;28;20449;-77
2021/06/10 07:33:12;;;;;;;44.50;41.87;;;23.90;67.10;;;;;;5080930;28;20527;-80
2021/06/10 07:35:42;;;;;;;41.53;38.93;;;23.80;67.40;;;;;;5079734;28;20578;-79
2021/06/10 07:38:10;;;;;;;40.00;37.50;;;24.00;67.00;;;;;;5072429;28;20470;-79
2021/06/10 07:40:38;;;;;;;40.33;37.53;;;24.00;67.20;;;;;;5080569;28;20514;-79
2021/06/10 07:43:05;;;;;;;42.30;39.73;;;24.00;67.10;;;;;;5080911;28;20534;-78
2021/06/10 07:45:32;;;;;;;41.80;38.90;;;24.20;66.90;;;;;;5081983;28;20536;-79
2021/06/10 07:48:00;;;;;;;40.90;38.20;;;24.30;66.10;;;;;;5070814;28;20937;-82
2021/06/10 07:50:27;;;;;;;40.60;37.40;;;24.20;66.60;;;;;;5070643;28;20461;-77
2021/06/10 07:52:54;;;;;;;38.37;35.90;;;23.90;67.70;;;;;;5077482;28;20478;-80
2021/06/10 07:55:21;;;;;;;39.93;36.90;;;23.90;67.40;;;;;;5074915;28;20536;-83
2021/06/10 07:57:48;;;;;;;40.93;38.13;;;24.20;67.00;;;;;;5078534;28;20574;-79
2021/06/10 08:00:16;;;;;;;39.47;36.77;;;24.30;66.50;;;;;;5078589;28;20507;-78
2021/06/10 08:02:44;;;;;;;43.27;40.67;;;24.20;66.40;;;;;;5077793;28;20495;-77
2021/06/10 08:05:13;;;;;;;43.80;40.73;;;24.40;65.90;;;;;;5065931;28;20914;-79
2021/06/10 08:07:42;;;;;;;41.70;39.00;;;24.60;65.70;;;;;;5073720;28;20461;-79
2021/06/10 08:10:10;;;;;;;44.80;42.00;;;24.80;65.10;;;;;;5075252;28;20496;-81
2021/06/10 08:12:36;;;;;;;40.00;37.33;;;24.50;65.30;;;;;;5070548;28;20603;-78
2021/06/10 08:15:04;;;;;;;41.57;38.90;;;24.30;66.50;;;;;;5075586;28;20552;-78
2021/06/10 08:17:32;;;;;;;43.07;40.03;;;24.30;66.70;;;;;;5072109;28;20825;-79
2021/06/10 08:19:58;;;;;;;40.23;37.30;;;24.50;66.30;;;;;;5067512;28;20458;-81
2021/06/10 08:22:26;;;;;;;40.27;37.57;;;24.80;65.60;;;;;;5072404;28;20515;-79
2021/06/10 08:24:53;;;;;;;41.43;38.63;;;24.90;65.30;;;;;;5075400;28;20896;-77
2021/06/10 08:27:20;;;;;;;41.27;38.27;;;25.00;64.40;;;;;;5076700;28;20887;-80
2021/06/10 08:29:46;;;;;;;40.33;37.60;;;24.90;64.70;;;;;;5076226;28;20834;-78
2021/06/10 08:32:13;;;;;;;41.20;38.53;;;24.80;64.80;;;;;;5091675;28;20482;-80
2021/06/10 08:34:39;;;;;;;40.00;37.27;;;24.60;65.40;;;;;;5081267;28;20900;-78
2021/06/10 08:37:06;;;;;;;41.20;38.50;;;24.30;66.20;;;;;;5081545;28;20566;-82
2021/06/10 08:39:33;;;;;;;42.80;40.07;;;24.40;66.50;;;;;;5081209;28;20966;-79
2021/06/10 08:42:00;;;;;;;39.70;36.90;;;24.50;66.10;;;;;;5085997;28;20476;-79
2021/06/10 08:44:27;;;;;;;40.30;37.37;;;24.80;65.50;;;;;;5078820;28;20491;-79
2021/06/10 08:46:54;;;;;;;41.07;38.17;;;24.80;65.40;;;;;;5085116;28;20460;-78
2021/06/10 08:49:21;;;;;;;44.00;41.00;;;24.90;65.50;;;;;;5086153;28;20544;-78
2021/06/10 08:51:48;;;;;;;40.13;37.20;;;25.10;65.30;;;;;;5086219;28;20539;-79
2021/06/10 08:54:15;;;;;;;39.50;36.80;;;25.30;64.80;;;;;;5085794;28;20487;-80
2021/06/10 08:56:44;;;;;;;42.70;39.93;;;25.50;64.40;;;;;;5085429;28;20449;-79
2021/06/10 08:59:10;;;;;;;38.63;36.23;;;25.50;63.90;;;;;;5085269;28;20464;-80
2021/06/10 09:01:37;;;;;;;44.80;41.30;;;25.60;64.10;;;;;;5084665;28;20481;-78
2021/06/10 09:04:05;;;;;;;43.00;39.90;;;25.70;64.20;;;;;;5083603;28;20477;-81
2021/06/10 09:06:46;;;;;;;40.67;37.97;;;25.90;63.50;;;;;;5087526;28;20569;-80
2021/06/10 09:09:13;;;;;;;40.43;37.50;;;26.00;63.30;;;;;;5086419;28;20457;-81
2021/06/10 09:11:39;;;;;;;43.27;40.27;;;26.10;63.30;;;;;;5086348;28;20875;-80
2021/06/10 09:14:10;;;;;;;45.73;41.20;;;26.00;62.70;;;;;;5088223;28;20473;-79
2021/06/10 09:16:37;;;;;;;44.07;40.63;;;26.10;62.50;;;;;;5086385;28;20866;-78
2021/06/10 09:19:09;;;;;;;46.17;42.97;;;26.30;62.40;;;;;;5094504;28;21011;-79
2021/06/10 09:21:37;;;;;;;43.70;40.60;;;26.40;61.80;;;;;;5088116;28;20473;-78
2021/06/10 09:24:24;;;;;;;42.17;39.13;;;26.40;60.80;;;;;;5090626;28;20499;-79
2021/06/10 09:27:04;;;;;;;42.20;39.50;;;26.30;61.10;;;;;;5089472;28;20445;-78
2021/06/10 09:29:37;;;;;;;44.33;41.43;;;26.10;61.30;;;;;;5086964;28;20457;-80
2021/06/10 09:32:03;;;;;;;42.93;39.33;;;26.30;60.60;;;;;;5076149;28;20444;-81
2021/06/10 09:34:47;;;;;;;44.57;41.43;;;26.40;60.80;;;;;;5085414;28;20532;-80
2021/06/10 09:37:23;;;;;;;42.23;39.33;;;26.60;60.60;;;;;;5089887;28;20886;-79
2021/06/10 09:39:54;;;;;;;43.60;40.70;;;26.60;60.90;;;;;;5091722;28;20465;-79
2021/06/10 09:42:31;;;;;;;43.60;40.80;;;26.70;60.90;;;;;;5082711;28;20477;-80
2021/06/10 09:45:01;;;;;;;44.37;41.47;;;26.80;60.70;;;;;;5089578;28;20955;-81
2021/06/10 09:47:29;;;;;;;44.17;41.00;;;26.80;60.30;;;;;;5080257;28;20461;-79
2021/06/10 09:49:55;;;;;;;44.70;41.60;;;26.80;60.40;;;;;;5072479;28;20852;-80
2021/06/10 09:52:22;;;;;;;49.07;45.87;;;26.80;60.00;;;;;;5068310;28;20495;-81
2021/06/10 09:54:51;;;;;;;45.60;42.00;;;26.80;59.90;;;;;;5084519;28;20461;-80
2021/06/10 09:57:18;;;;;;;43.57;39.87;;;26.70;60.50;;;;;;5082620;28;20900;-82
2021/06/10 09:59:46;;;;;;;44.93;41.70;;;26.90;60.20;;;;;;5083606;28;20453;-79
2021/06/10 10:02:21;;;;;;;81.73;47.80;;;26.80;60.60;;;;;;5084192;28;20725;-79
2021/06/10 10:05:04;;;;;;;62.17;43.07;;;27.00;60.10;;;;;;5084218;28;20833;-80
2021/06/10 10:07:32;;;;;;;48.37;44.73;;;27.20;59.90;;;;;;5075951;28;20460;-82
2021/06/10 10:10:00;;;;;;;49.53;46.23;;;27.00;59.50;;;;;;5082777;28;20461;-81
2021/06/10 10:12:28;;;;;;;48.43;45.03;;;27.00;59.50;;;;;;5076106;28;20442;-81
2021/06/10 10:14:55;;;;;;;48.90;45.50;;;26.70;59.90;;;;;;5074466;28;21128;-81
2021/06/10 10:17:25;;;;;;;49.57;46.17;;;26.50;60.70;;;;;;5081117;28;20460;-79
2021/06/10 10:19:51;;;;;;;49.43;46.13;;;26.50;60.60;;;;;;5081858;28;20453;-81
2021/06/10 10:22:18;;;;;;;49.00;45.60;;;26.50;61.00;;;;;;5077886;28;20978;-81
2021/06/10 10:24:44;;;;;;;48.80;45.63;;;26.60;60.50;;;;;;5084991;28;20457;-80
2021/06/10 10:27:13;;;;;;;49.43;46.10;;;26.50;60.70;;;;;;5087016;28;20811;-81
2021/06/10 10:29:42;;;;;;;50.87;47.47;;;26.60;61.10;;;;;;5087466;28;21214;-80
2021/06/10 10:32:11;;;;;;;54.57;50.63;;;26.90;59.90;;;;;;5087746;28;20441;-76
2021/06/10 10:34:40;;;;;;;50.60;47.17;;;26.80;59.60;;;;;;5084644;28;20461;-79
2021/06/10 10:37:22;;;;;;;49.33;46.07;;;26.80;59.90;;;;;;5078294;28;20521;-78
2021/06/10 10:39:52;;;;;;;49.33;46.00;;;26.90;60.20;;;;;;5081814;28;20850;-77
2021/06/10 10:42:26;;;;;;;49.70;46.30;;;27.00;60.20;;;;;;5085967;28;20469;-79
2021/06/10 10:45:10;;;;;;;46.93;43.63;;;27.20;59.40;;;;;;5084067;28;20449;-77
2021/06/10 10:47:41;;;;;;;48.17;45.07;;;27.00;57.80;;;;;;5081175;28;20461;-78
2021/06/10 10:50:16;;;;;;;45.63;42.63;;;26.70;57.90;;;;;;5081215;28;20469;-80
2021/06/10 10:52:53;;;;;;;48.63;45.43;;;26.50;58.30;;;;;;5070470;28;20982;-78
2021/06/10 10:55:27;;;;;;;48.60;45.30;;;26.50;59.10;;;;;;5070907;28;20580;-77
2021/06/10 10:58:15;;;;;;;47.00;44.03;;;26.50;59.40;;;;;;5079652;28;20461;-76
2021/06/10 11:00:50;;;;;;;46.67;43.77;;;26.40;59.00;;;;;;5080377;28;20477;-77
2021/06/10 11:03:29;;;;;;;49.80;46.60;;;26.20;60.20;;;;;;5071450;28;20967;-78
2021/06/10 11:05:58;;;;;;;48.70;45.40;;;26.00;60.80;;;;;;5080796;28;20567;-79
2021/06/10 11:08:57;;;;;;;50.43;46.57;;;25.90;61.50;;;;;;5082078;28;20457;-78
2021/06/10 11:11:50;;;;;;;52.00;48.60;;;25.90;60.60;;;;;;5082082;28;20542;-82
2021/06/10 11:14:36;;;;;;;46.77;43.67;;;25.90;61.20;;;;;;5078627;28;20476;-78
2021/06/10 11:17:21;;;;;;;48.97;45.77;;;26.20;60.60;;;;;;5073261;28;20458;-79
2021/06/10 11:19:53;;;;;;;46.80;43.63;;;26.30;60.20;;;;;;5089499;28;20453;-76
2021/06/10 11:22:32;;;;;;;50.60;47.30;;;26.40;60.00;;;;;;5090009;28;20533;-80
2021/06/10 11:24:59;;;;;;;50.47;47.13;;;26.40;60.40;;;;;;5085834;28;20925;-78
2021/06/10 11:27:39;;;;;;;48.73;45.53;;;26.50;59.70;;;;;;5079525;28;20453;-77
2021/06/10 11:30:10;;;;;;;48.30;45.30;;;26.70;59.10;;;;;;5078026;28;20505;-75
2021/06/10 11:33:05;;;;;;;50.60;47.20;;;27.10;58.80;;;;;;5080603;28;20512;-77
2021/06/10 11:35:34;;;;;;;47.83;44.73;;;27.50;57.40;;;;;;5075116;28;20828;-79
2021/06/10 11:38:04;;;;;;;49.73;45.93;;;27.70;56.00;;;;;;5074424;28;20454;-77
2021/06/10 11:40:33;;;;;;;51.03;47.60;;;27.80;56.60;;;;;;5083149;28;20536;-78
2021/06/10 11:43:05;;;;;;;50.20;46.90;;;28.00;55.60;;;;;;5079728;28;20633;-76
2021/06/10 11:45:31;;;;;;;47.20;44.10;;;28.10;55.30;;;;;;5077935;28;20598;-76
2021/06/10 11:47:58;;;;;;;49.53;45.90;;;28.20;55.50;;;;;;5078087;28;20466;-78
2021/06/10 11:50:27;;;;;;;48.57;45.47;;;28.40;54.80;;;;;;5075464;28;20461;-78
2021/06/10 11:52:57;;;;;;;46.63;43.63;;;28.40;55.00;;;;;;5074883;28;21012;-78
2021/06/10 11:55:29;;;;;;;46.70;43.63;;;28.30;54.80;;;;;;5079134;28;20485;-78
2021/06/10 11:58:00;;;;;;;45.30;42.23;;;28.20;54.80;;;;;;5071835;28;20460;-78
2021/06/10 12:00:31;;;;;;;49.33;46.23;;;28.10;54.40;;;;;;5077140;28;20481;-78
2021/06/10 12:02:59;;;;;;;51.87;48.10;;;28.00;55.00;;;;;;5071851;28;20487;-78
2021/06/10 12:05:27;;;;;;;49.77;46.40;;;27.50;56.00;;;;;;5085032;28;20493;-78
2021/06/10 12:08:07;;;;;;;49.27;46.07;;;27.10;56.90;;;;;;5082799;28;20454;-77
2021/06/10 12:10:35;;;;;;;49.77;46.10;;;27.20;57.10;;;;;;5084244;28;20464;-77
2021/06/10 12:13:03;;;;;;;48.70;45.57;;;27.40;54.80;;;;;;5077732;28;20474;-77
2021/06/10 12:15:46;;;;;;;45.53;42.73;;;27.50;54.70;;;;;;5082403;28;20454;-76
2021/06/10 12:18:15;;;;;;;43.47;40.77;;;27.80;53.80;;;;;;5076325;28;20974;-76
2021/06/10 12:20:43;;;;;;;44.60;41.60;;;28.20;52.60;;;;;;5081849;28;20445;-76
2021/06/10 12:23:16;;;;;;;45.80;42.83;;;28.20;52.10;;;;;;5071181;28;20759;-76
2021/06/10 12:25:50;;;;;;;43.67;40.30;;;28.20;52.00;;;;;;5082143;28;20866;-76
2021/06/10 12:28:31;;;;;;;45.50;42.50;;;28.40;52.50;;;;;;5074469;28;20469;-76
2021/06/10 12:31:03;;;;;;;45.60;42.60;;;28.60;51.60;;;;;;5082022;28;21116;-76
2021/06/10 12:33:30;;;;;;;46.40;43.40;;;28.40;52.70;;;;;;5072514;28;20552;-76
2021/06/10 12:35:57;;;;;;;44.23;41.33;;;28.40;52.80;;;;;;5078454;28;20857;-76
2021/06/10 12:38:28;;;;;;;45.03;42.13;;;28.70;52.20;;;;;;5082723;28;20848;-76